Naruna, Virginia
Current Conditions -  °F | °C
As of 3:55 AM on Sunday 26 Oct 2014 (Local Time) from K0V4 Reporting Station
Clear Clear  
Wind Chill: 58°   Ceiling: Unl
Heat Index: 58°   Visibility: 10mi
Dew Point: 53°   Wind: 8mph
Humidity: 83%   Direction: 230°SW
Pressure: 29.79"   Gusts: NA
Location:  37.11°N, 79°W
Report Text: K0V4 260755Z AUTO 23007KT 10SM CLR 14/12 A2979 RMK AO1 T01430115
Loading
Personal Weather Stations






























Interactive Weather Map
Tropical Storm Tracking
New forecast layout! Learn more

10-Day Weather Forecast

Advertisements
Track Severe Weather on mobile